createdAt,value
2023-10-10T00:01:19.540Z,5.38
2023-10-10T00:03:46.656Z,4.82
2023-10-10T00:06:15.078Z,4.85
2023-10-10T00:08:43.643Z,4.28
2023-10-10T00:11:17.696Z,4.53
2023-10-10T00:13:44.767Z,2.90
2023-10-10T00:16:26.550Z,3.90
2023-10-10T00:19:03.283Z,5.07
2023-10-10T00:21:29.855Z,4.43
2023-10-10T00:24:00.458Z,4.70
2023-10-10T00:26:27.317Z,4.18
2023-10-10T00:28:57.161Z,4.13
2023-10-10T00:31:29.819Z,4.05
2023-10-10T00:33:56.652Z,4.65
2023-10-10T00:36:28.841Z,4.80
2023-10-10T00:39:06.991Z,3.28
2023-10-10T00:41:43.761Z,5.15
2023-10-10T00:44:13.942Z,4.20
2023-10-10T00:46:40.900Z,5.03
2023-10-10T00:49:11.581Z,5.72
2023-10-10T00:51:40.263Z,5.45
2023-10-10T00:54:13.773Z,4.63
2023-10-10T00:56:45.257Z,6.40
2023-10-10T00:59:12.364Z,5.65
2023-10-10T01:01:41.819Z,5.88
2023-10-10T01:04:10.914Z,5.20
2023-10-10T01:06:40.100Z,5.30
2023-10-10T01:09:22.515Z,7.10
2023-10-10T01:11:52.553Z,6.40
2023-10-10T01:14:27.820Z,6.05
2023-10-10T01:16:59.206Z,6.15
2023-10-10T01:19:31.998Z,6.82
2023-10-10T01:21:59.516Z,6.72
2023-10-10T01:27:06.130Z,5.78
2023-10-10T01:29:42.017Z,5.93
2023-10-10T01:32:11.937Z,6.25
2023-10-10T01:34:45.084Z,5.93
2023-10-10T01:37:24.340Z,4.97
2023-10-10T01:40:18.294Z,7.28
2023-10-10T01:43:03.360Z,6.75
2023-10-10T01:45:30.952Z,8.77
2023-10-10T01:47:58.009Z,7.82
2023-10-10T01:50:28.391Z,4.43
2023-10-10T01:52:57.236Z,3.90
2023-10-10T01:55:26.262Z,3.42
2023-10-10T01:58:11.263Z,4.07
2023-10-10T02:00:37.920Z,5.10
2023-10-10T02:03:05.482Z,4.93
2023-10-10T02:05:37.972Z,5.35
2023-10-10T02:08:12.411Z,5.47
2023-10-10T02:10:45.165Z,5.25
2023-10-10T02:13:12.620Z,5.40
2023-10-10T02:15:40.677Z,4.97
2023-10-10T02:18:14.274Z,4.82
2023-10-10T02:20:44.543Z,5.35
2023-10-10T02:23:24.084Z,5.38
2023-10-10T02:25:54.450Z,5.93
2023-10-10T02:28:21.860Z,5.65
2023-10-10T02:30:53.411Z,5.90
2023-10-10T02:33:20.443Z,5.63
2023-10-10T02:35:56.114Z,5.50
2023-10-10T02:38:34.571Z,4.40
2023-10-10T02:41:18.550Z,6.20
2023-10-10T02:43:54.350Z,4.88
2023-10-10T02:46:22.053Z,6.00
2023-10-10T02:48:55.251Z,5.45
2023-10-10T02:51:21.808Z,4.90
2023-10-10T02:53:48.301Z,5.25
2023-10-10T02:56:19.900Z,4.20
2023-10-10T02:58:55.101Z,4.00
2023-10-10T03:01:40.309Z,3.70
2023-10-10T03:04:09.418Z,3.55
2023-10-10T03:06:36.162Z,5.75
2023-10-10T03:09:29.004Z,4.60
2023-10-10T03:12:04.795Z,6.07
2023-10-10T03:14:34.801Z,7.35
2023-10-10T03:17:06.807Z,8.45
2023-10-10T03:19:39.808Z,7.18
2023-10-10T03:22:24.938Z,9.25
2023-10-10T03:25:22.070Z,10.02
2023-10-10T03:28:06.474Z,10.60
2023-10-10T03:30:51.269Z,11.10
2023-10-10T03:33:37.861Z,12.02
2023-10-10T03:36:18.835Z,11.73
2023-10-10T03:38:52.499Z,13.77
2023-10-10T03:41:38.385Z,14.80
2023-10-10T03:44:23.579Z,15.98
2023-10-10T03:46:58.995Z,15.48
2023-10-10T03:49:45.007Z,18.42
2023-10-10T03:52:30.236Z,16.95
2023-10-10T03:55:15.607Z,16.95
2023-10-10T03:58:00.926Z,18.08
2023-10-10T04:00:46.009Z,16.85
2023-10-10T04:03:30.817Z,17.10
2023-10-10T04:06:22.946Z,18.00
2023-10-10T04:09:07.728Z,16.85
2023-10-10T04:11:53.216Z,16.48
2023-10-10T04:14:38.676Z,14.77
2023-10-10T04:17:24.018Z,16.88
2023-10-10T04:20:08.887Z,16.65
2023-10-10T04:22:53.918Z,18.25
2023-10-10T04:25:39.282Z,17.58
2023-10-10T04:28:24.768Z,17.60
2023-10-10T04:31:09.560Z,18.10
2023-10-10T04:33:54.313Z,18.48
2023-10-10T04:36:39.209Z,16.52
2023-10-10T04:39:24.021Z,18.08
2023-10-10T04:42:08.869Z,19.92
2023-10-10T04:44:54.176Z,19.77
2023-10-10T04:47:39.203Z,18.77
2023-10-10T04:50:24.928Z,21.20
2023-10-10T04:53:09.754Z,20.77
2023-10-10T04:55:55.058Z,18.60
2023-10-10T04:58:39.930Z,19.05
2023-10-10T05:01:26.791Z,17.65
2023-10-10T05:04:12.324Z,18.80
2023-10-10T05:06:57.214Z,17.67
2023-10-10T05:09:42.669Z,19.67
2023-10-10T05:12:27.536Z,20.33
2023-10-10T05:15:12.287Z,18.75
2023-10-10T05:17:57.126Z,20.52
2023-10-10T05:20:43.396Z,19.75
2023-10-10T05:23:28.399Z,20.42
2023-10-10T05:25:56.224Z,20.92
2023-10-10T05:28:23.379Z,19.35
2023-10-10T05:30:49.865Z,20.38
2023-10-10T05:33:20.717Z,20.20
2023-10-10T05:35:51.145Z,21.63
2023-10-10T05:38:18.296Z,16.55
2023-10-10T05:40:44.921Z,20.23
2023-10-10T05:43:16.682Z,18.45
2023-10-10T05:45:46.779Z,21.55
2023-10-10T05:48:13.560Z,20.98
2023-10-10T05:50:43.781Z,20.25
2023-10-10T05:53:11.067Z,21.20
2023-10-10T05:55:38.557Z,22.48
2023-10-10T05:58:06.392Z,21.08
2023-10-10T06:00:38.882Z,21.08
2023-10-10T06:03:08.929Z,21.45
2023-10-10T06:05:36.091Z,22.30
2023-10-10T06:08:03.124Z,24.77
2023-10-10T06:10:33.965Z,21.13
2023-10-10T06:13:04.965Z,21.95
2023-10-10T06:15:35.270Z,20.73
2023-10-10T06:18:15.181Z,22.23
2023-10-10T06:21:06.605Z,22.48
2023-10-10T06:23:36.483Z,21.13
2023-10-10T06:26:05.379Z,20.88
2023-10-10T06:28:43.591Z,20.30
2023-10-10T06:31:14.034Z,22.73
2023-10-10T06:33:43.401Z,22.48
2023-10-10T06:36:23.511Z,20.00
2023-10-10T06:39:19.323Z,21.55
2023-10-10T06:41:48.975Z,23.33
2023-10-10T06:44:16.328Z,23.67
2023-10-10T06:49:13.502Z,22.95
2023-10-10T06:51:43.621Z,23.58
2023-10-10T06:54:20.726Z,24.02
2023-10-10T06:57:02.908Z,21.50
2023-10-10T06:59:30.153Z,21.40
2023-10-10T07:02:13.749Z,23.13
2023-10-10T07:04:41.068Z,23.85
2023-10-10T07:07:10.077Z,22.75
2023-10-10T07:09:38.474Z,23.17
2023-10-10T07:12:12.095Z,22.67
2023-10-10T07:14:44.633Z,24.30
2023-10-10T07:17:14.906Z,22.55
2023-10-10T07:20:03.978Z,22.45
2023-10-10T07:22:34.971Z,22.52
2023-10-10T07:25:09.328Z,23.17
2023-10-10T07:27:41.191Z,21.80
2023-10-10T07:30:18.114Z,21.75
2023-10-10T07:32:45.131Z,23.63
2023-10-10T07:35:17.969Z,22.55
2023-10-10T07:37:45.433Z,22.02
2023-10-10T07:40:21.313Z,23.00
2023-10-10T07:42:50.842Z,23.27
2023-10-10T07:45:28.696Z,22.40
2023-10-10T07:48:01.160Z,20.42
2023-10-10T07:50:35.826Z,22.83
2023-10-10T07:53:14.246Z,22.52
2023-10-10T07:55:55.126Z,23.10
2023-10-10T07:58:37.172Z,22.13
2023-10-10T08:01:17.525Z,21.45
2023-10-10T08:03:46.124Z,22.13
2023-10-10T08:06:23.300Z,21.92
2023-10-10T08:09:12.641Z,23.23
2023-10-10T08:11:39.321Z,21.20
2023-10-10T08:14:09.728Z,22.10
2023-10-10T08:16:41.395Z,20.15
2023-10-10T08:19:12.172Z,21.20
2023-10-10T08:21:40.589Z,20.38
2023-10-10T08:24:08.857Z,18.90
2023-10-10T08:26:42.033Z,20.08
2023-10-10T08:29:13.600Z,19.83
2023-10-10T08:31:43.385Z,19.02
2023-10-10T08:34:10.529Z,18.70
2023-10-10T08:39:18.217Z,19.17
2023-10-10T08:41:45.824Z,18.63
2023-10-10T08:44:16.398Z,18.15
2023-10-10T08:46:47.512Z,17.95
2023-10-10T08:49:15.689Z,19.08
2023-10-10T08:51:43.962Z,18.38
2023-10-10T08:54:12.146Z,18.98
2023-10-10T08:57:01.206Z,17.60
2023-10-10T08:59:31.815Z,17.17
2023-10-10T09:02:07.322Z,17.17
2023-10-10T09:04:34.435Z,16.67
2023-10-10T09:09:39.136Z,17.77
2023-10-10T09:12:13.803Z,15.55
2023-10-10T09:14:51.680Z,16.63
2023-10-10T09:17:36.865Z,17.73
2023-10-10T09:20:24.628Z,17.10
2023-10-10T09:22:59.850Z,16.45
2023-10-10T09:25:32.557Z,16.65
2023-10-10T09:28:09.204Z,16.45
2023-10-10T09:30:41.711Z,16.35
2023-10-10T09:33:14.876Z,16.70
2023-10-10T09:35:41.969Z,15.73
2023-10-10T09:38:16.569Z,16.25
2023-10-10T09:40:47.555Z,15.48
2023-10-10T09:43:25.310Z,14.82
2023-10-10T09:46:11.878Z,14.68
2023-10-10T09:48:41.350Z,13.73
2023-10-10T09:51:27.431Z,14.32
2023-10-10T09:54:05.099Z,13.75
2023-10-10T09:56:32.365Z,13.48
2023-10-10T09:59:00.579Z,14.77
2023-10-10T10:01:28.291Z,13.90
2023-10-10T10:04:01.702Z,14.45
2023-10-10T10:07:05.961Z,13.90
2023-10-10T10:09:57.020Z,13.10
2023-10-10T10:12:47.066Z,14.02
2023-10-10T10:15:40.928Z,13.70
2023-10-10T10:18:14.795Z,13.80
2023-10-10T10:21:06.720Z,14.20
2023-10-10T10:23:46.346Z,13.88
2023-10-10T10:26:23.676Z,12.73
2023-10-10T10:28:59.262Z,12.60
2023-10-10T10:31:30.412Z,12.50
2023-10-10T10:34:11.405Z,12.75
2023-10-10T10:36:46.282Z,12.77
2023-10-10T10:39:25.098Z,11.88
2023-10-10T10:41:56.661Z,12.13
2023-10-10T10:45:01.510Z,12.10
2023-10-10T10:47:37.376Z,11.00
2023-10-10T10:50:05.908Z,11.15
2023-10-10T10:52:45.412Z,11.77
2023-10-10T10:55:22.798Z,11.02
2023-10-10T10:58:07.193Z,12.10
2023-10-10T11:00:42.521Z,11.38
2023-10-10T11:03:12.752Z,11.23
2023-10-10T11:05:41.371Z,10.55
2023-10-10T11:08:13.070Z,10.50
2023-10-10T11:10:39.992Z,11.57
2023-10-10T11:13:09.082Z,10.70
2023-10-10T11:15:39.365Z,11.23
2023-10-10T11:18:09.628Z,11.38
2023-10-10T11:20:58.211Z,11.18
2023-10-10T11:23:34.934Z,10.32
2023-10-10T11:26:09.177Z,11.40
2023-10-10T11:28:47.721Z,10.77
2023-10-10T11:31:17.406Z,10.70
2023-10-10T11:33:49.965Z,10.52
2023-10-10T11:36:30.443Z,9.88
2023-10-10T11:39:17.914Z,11.07
2023-10-10T11:41:46.541Z,11.88
2023-10-10T11:44:19.932Z,10.48
2023-10-10T11:49:19.601Z,9.88
2023-10-10T11:51:47.850Z,10.65
2023-10-10T11:54:14.576Z,10.05
2023-10-10T11:56:41.127Z,11.02
2023-10-10T11:59:15.381Z,10.88
2023-10-10T12:01:52.657Z,10.25
2023-10-10T12:04:32.047Z,12.23
2023-10-10T12:07:06.429Z,10.07
2023-10-10T12:09:33.862Z,11.30
2023-10-10T12:12:02.638Z,11.02
2023-10-10T12:14:31.557Z,12.52
2023-10-10T12:17:01.308Z,11.43
2023-10-10T12:19:36.865Z,11.23
2023-10-10T12:22:11.824Z,11.10
2023-10-10T12:24:40.461Z,11.93
2023-10-10T12:27:10.535Z,10.85
2023-10-10T12:29:41.487Z,10.32
2023-10-10T12:32:23.320Z,10.93
2023-10-10T12:34:50.248Z,10.25
2023-10-10T12:37:16.791Z,10.25
2023-10-10T12:42:10.485Z,10.25
2023-10-10T12:44:36.928Z,11.02
2023-10-10T12:47:07.562Z,10.18
2023-10-10T12:49:37.903Z,9.77
2023-10-10T12:52:13.061Z,10.35
2023-10-10T12:54:39.772Z,10.57
2023-10-10T12:59:35.168Z,11.68
2023-10-10T13:02:04.422Z,10.07
2023-10-10T13:04:33.381Z,11.52
2023-10-10T13:07:04.813Z,12.38
2023-10-10T13:09:33.087Z,11.32
2023-10-10T13:12:03.690Z,10.88
2023-10-10T13:14:33.993Z,10.52
2023-10-10T13:17:33.122Z,9.23
2023-10-10T13:20:00.257Z,9.50
2023-10-10T13:22:30.252Z,8.90
2023-10-10T13:24:57.160Z,9.55
2023-10-10T13:29:52.955Z,9.13
2023-10-10T13:32:21.424Z,9.02
2023-10-10T13:34:48.127Z,9.13
2023-10-10T13:37:14.615Z,9.35
2023-10-10T13:39:49.992Z,10.27
2023-10-10T13:42:18.740Z,8.27
2023-10-10T13:44:45.517Z,9.13
2023-10-10T13:47:12.065Z,8.98
2023-10-10T13:49:45.470Z,9.23
2023-10-10T13:52:13.899Z,9.05
2023-10-10T13:54:40.681Z,8.30
2023-10-10T13:57:08.480Z,8.02
2023-10-10T13:59:35.028Z,7.95
2023-10-10T14:02:05.303Z,8.15
2023-10-10T14:04:46.759Z,8.10
2023-10-10T14:07:17.613Z,8.20
2023-10-10T14:10:02.387Z,7.78
2023-10-10T14:12:32.971Z,8.18
2023-10-10T14:15:00.520Z,8.85
2023-10-10T14:19:53.661Z,9.23
2023-10-10T14:22:25.111Z,8.85
2023-10-10T14:27:21.264Z,9.02
2023-10-10T14:29:49.100Z,8.52
2023-10-10T14:32:31.009Z,9.82
2023-10-10T14:35:04.158Z,9.25
2023-10-10T14:37:45.297Z,9.73
2023-10-10T14:40:19.563Z,9.73
2023-10-10T14:42:45.937Z,8.10
2023-10-10T14:45:13.782Z,8.70
2023-10-10T14:47:44.448Z,7.93
2023-10-10T14:50:13.824Z,8.35
2023-10-10T14:52:48.240Z,7.40
2023-10-10T14:55:25.211Z,7.18
2023-10-10T14:57:56.294Z,6.07
2023-10-10T15:00:24.334Z,5.30
2023-10-10T15:02:54.432Z,5.75
2023-10-10T15:05:24.575Z,5.32
2023-10-10T15:07:53.576Z,6.03
2023-10-10T15:10:24.666Z,5.68
2023-10-10T15:12:51.134Z,5.90
2023-10-10T15:15:18.005Z,5.65
2023-10-10T15:17:44.630Z,7.03
2023-10-10T15:20:13.450Z,5.88
2023-10-10T15:22:43.030Z,5.68
2023-10-10T15:25:11.812Z,5.40
2023-10-10T15:27:42.030Z,6.00
2023-10-10T15:30:10.055Z,6.00
2023-10-10T15:32:49.394Z,5.78
2023-10-10T15:35:18.148Z,6.07
2023-10-10T15:37:45.473Z,5.65
2023-10-10T15:40:22.265Z,5.70
2023-10-10T15:42:52.955Z,6.35
2023-10-10T15:45:22.532Z,5.70
2023-10-10T15:47:50.529Z,4.95
2023-10-10T15:50:17.892Z,5.75
2023-10-10T15:52:50.063Z,5.35
2023-10-10T15:55:25.203Z,5.15
2023-10-10T15:57:53.602Z,5.55
2023-10-10T16:00:22.694Z,5.65
2023-10-10T16:02:53.771Z,5.88
2023-10-10T16:05:21.049Z,6.22
2023-10-10T16:07:59.041Z,5.53
2023-10-10T16:10:33.356Z,5.28
2023-10-10T16:12:59.876Z,5.85
2023-10-10T16:15:31.064Z,5.65
2023-10-10T16:18:02.024Z,5.82
2023-10-10T16:20:28.712Z,5.07
2023-10-10T16:22:55.211Z,5.07
2023-10-10T16:25:24.119Z,5.50
2023-10-10T16:27:51.057Z,5.40
2023-10-10T16:30:18.082Z,5.07
2023-10-10T16:35:12.642Z,4.90
2023-10-10T16:37:40.257Z,5.22
2023-10-10T16:40:09.472Z,5.53
2023-10-10T16:42:36.198Z,5.53
2023-10-10T16:45:03.285Z,5.22
2023-10-10T16:49:56.342Z,5.22
2023-10-10T16:52:27.070Z,4.50
2023-10-10T16:54:54.587Z,5.57
2023-10-10T16:57:26.987Z,5.38
2023-10-10T16:59:56.949Z,5.40
2023-10-10T17:02:28.818Z,5.47
2023-10-10T17:04:56.131Z,5.43
2023-10-10T17:07:22.767Z,5.75
2023-10-10T17:09:49.219Z,6.13
2023-10-10T17:12:18.832Z,6.05
2023-10-10T17:14:45.816Z,6.32
2023-10-10T17:17:14.159Z,6.63
2023-10-10T17:19:41.973Z,6.03
2023-10-10T17:22:08.408Z,6.43
2023-10-10T17:24:34.951Z,6.43
2023-10-10T17:27:01.766Z,6.53
2023-10-10T17:29:29.642Z,7.05
2023-10-10T17:31:56.091Z,7.70
2023-10-10T17:34:28.964Z,7.60
2023-10-10T17:37:00.029Z,7.57
2023-10-10T17:39:26.491Z,7.47
2023-10-10T17:41:53.270Z,6.93
2023-10-10T17:44:20.321Z,7.03
2023-10-10T17:46:47.865Z,5.68
2023-10-10T17:49:15.078Z,6.45
2023-10-10T17:51:45.414Z,6.82
2023-10-10T17:54:12.666Z,6.18
2023-10-10T17:56:39.066Z,6.03
2023-10-10T17:59:07.360Z,5.85
2023-10-10T18:01:33.998Z,5.88
2023-10-10T18:04:04.052Z,5.53
2023-10-10T18:06:30.732Z,6.63
2023-10-10T18:09:02.451Z,5.85
2023-10-10T18:11:33.200Z,5.32
2023-10-10T18:13:59.962Z,5.47
2023-10-10T18:16:26.368Z,5.70
2023-10-10T18:18:53.793Z,5.20
2023-10-10T18:21:21.239Z,5.78
2023-10-10T18:23:48.213Z,5.53
2023-10-10T18:26:17.283Z,5.13
2023-10-10T18:28:44.332Z,5.70
2023-10-10T18:31:19.798Z,5.07
2023-10-10T18:33:47.844Z,5.07
2023-10-10T18:36:14.351Z,5.22
2023-10-10T18:38:41.064Z,4.68
2023-10-10T18:41:09.005Z,4.65
2023-10-10T18:43:35.896Z,5.18
2023-10-10T18:46:02.473Z,4.90
2023-10-10T18:48:34.139Z,5.35
2023-10-10T18:51:01.880Z,5.57
2023-10-10T18:53:28.507Z,5.20
2023-10-10T18:55:56.264Z,4.78
2023-10-10T18:58:23.696Z,5.20
2023-10-10T19:00:52.391Z,5.07
2023-10-10T19:03:19.606Z,5.03
2023-10-10T19:08:18.976Z,4.45
2023-10-10T19:13:19.367Z,4.47
2023-10-10T19:15:48.748Z,4.88
2023-10-10T19:18:19.516Z,4.38
2023-10-10T19:20:47.701Z,4.30
2023-10-10T19:23:15.890Z,5.07
2023-10-10T19:25:48.887Z,5.35
2023-10-10T19:28:16.846Z,4.90
2023-10-10T19:30:44.350Z,4.50
2023-10-10T19:33:12.350Z,3.97
2023-10-10T19:35:45.290Z,4.35
2023-10-10T19:38:12.533Z,4.90
2023-10-10T19:40:43.817Z,4.68
2023-10-10T19:43:11.310Z,4.15
2023-10-10T19:45:38.731Z,4.00
2023-10-10T19:48:06.641Z,4.18
2023-10-10T19:50:43.541Z,4.45
2023-10-10T19:53:16.858Z,3.67
2023-10-10T19:55:45.350Z,3.75
2023-10-10T19:58:13.743Z,3.80
2023-10-10T20:00:44.515Z,3.97
2023-10-10T20:03:13.760Z,3.20
2023-10-10T20:05:42.106Z,3.67
2023-10-10T20:08:19.464Z,4.18
2023-10-10T20:10:48.984Z,3.63
2023-10-10T20:13:18.115Z,3.85
2023-10-10T20:15:45.375Z,3.30
2023-10-10T20:20:42.760Z,3.33
2023-10-10T20:23:10.470Z,3.47
2023-10-10T20:25:42.387Z,3.00
2023-10-10T20:28:10.171Z,3.22
2023-10-10T20:30:42.007Z,3.25
2023-10-10T20:33:15.620Z,3.22
2023-10-10T20:35:44.771Z,2.97
2023-10-10T20:38:11.502Z,3.42
2023-10-10T20:40:38.130Z,3.35
2023-10-10T20:43:06.446Z,3.63
2023-10-10T20:45:36.370Z,3.47
2023-10-10T20:48:09.550Z,3.70
2023-10-10T20:50:41.712Z,3.13
2023-10-10T20:53:13.022Z,3.33
2023-10-10T20:55:42.422Z,3.65
2023-10-10T20:58:11.712Z,3.28
2023-10-10T21:00:38.325Z,3.40
2023-10-10T21:03:08.266Z,3.45
2023-10-10T21:05:36.959Z,3.55
2023-10-10T21:08:04.706Z,3.30
2023-10-10T21:10:31.478Z,3.60
2023-10-10T21:12:58.478Z,3.05
2023-10-10T21:15:25.133Z,3.40
2023-10-10T21:17:53.844Z,3.08
2023-10-10T21:20:31.853Z,2.97
2023-10-10T21:23:00.804Z,3.40
2023-10-10T21:25:27.831Z,3.20
2023-10-10T21:27:58.177Z,3.38
2023-10-10T21:30:29.824Z,3.50
2023-10-10T21:32:57.884Z,3.70
2023-10-10T21:35:30.861Z,3.70
2023-10-10T21:38:03.090Z,4.15
2023-10-10T21:40:32.382Z,3.55
2023-10-10T21:42:58.834Z,3.58
2023-10-10T21:45:25.716Z,3.17
2023-10-10T21:47:58.104Z,3.53
2023-10-10T21:50:25.032Z,3.63
2023-10-10T21:52:51.830Z,3.20
2023-10-10T21:55:20.481Z,3.47
2023-10-10T21:57:58.122Z,3.65
2023-10-10T22:00:46.348Z,3.70
2023-10-10T22:03:15.173Z,3.47
2023-10-10T22:05:44.082Z,4.07
2023-10-10T22:08:11.655Z,4.10
2023-10-10T22:10:42.680Z,4.10
2023-10-10T22:13:12.338Z,3.92
2023-10-10T22:15:38.842Z,3.90
2023-10-10T22:18:06.126Z,4.15
2023-10-10T22:20:36.447Z,4.28
2023-10-10T22:23:05.761Z,4.30
2023-10-10T22:25:34.964Z,4.82
2023-10-10T22:28:02.696Z,4.13
2023-10-10T22:33:00.806Z,4.35
2023-10-10T22:35:29.505Z,5.05
2023-10-10T22:37:59.019Z,5.03
2023-10-10T22:40:28.844Z,4.90
2023-10-10T22:42:56.104Z,5.03
2023-10-10T22:45:23.518Z,5.43
2023-10-10T22:50:21.782Z,4.68
2023-10-10T22:52:51.410Z,5.03
2023-10-10T22:55:19.034Z,4.50
2023-10-10T22:57:45.770Z,4.93
2023-10-10T23:00:14.455Z,5.00
2023-10-10T23:02:49.273Z,4.30
2023-10-10T23:05:15.840Z,5.03
2023-10-10T23:07:42.987Z,5.18
2023-10-10T23:10:17.264Z,5.13
2023-10-10T23:12:43.941Z,5.38
2023-10-10T23:15:13.747Z,5.68
2023-10-10T23:17:44.366Z,5.03
2023-10-10T23:20:21.940Z,5.97
2023-10-10T23:22:49.580Z,5.60
2023-10-10T23:25:21.168Z,5.35
2023-10-10T23:27:48.765Z,5.65
2023-10-10T23:30:23.280Z,6.43
2023-10-10T23:32:51.759Z,6.15
2023-10-10T23:35:26.094Z,6.18
2023-10-10T23:37:54.654Z,5.70
2023-10-10T23:40:23.495Z,6.13
2023-10-10T23:42:52.466Z,6.55
2023-10-10T23:45:23.692Z,6.18
2023-10-10T23:47:52.795Z,6.15
2023-10-10T23:50:23.235Z,7.07
2023-10-10T23:52:53.120Z,5.78
2023-10-10T23:55:20.483Z,6.10
2023-10-10T23:57:48.837Z,6.18
